createdAt,value
2024-05-09T00:00:54.318Z,8.70
2024-05-09T00:03:25.728Z,8.60
2024-05-09T00:06:00.495Z,8.60
2024-05-09T00:08:32.179Z,8.50
2024-05-09T00:11:04.137Z,8.50
2024-05-09T00:13:35.593Z,8.40
2024-05-09T00:16:06.817Z,8.50
2024-05-09T00:18:38.269Z,8.50
2024-05-09T00:21:13.507Z,8.50
2024-05-09T00:23:44.998Z,8.50
2024-05-09T00:26:20.453Z,8.50
2024-05-09T00:28:51.967Z,8.50
2024-05-09T00:31:23.427Z,8.50
2024-05-09T00:33:55.064Z,8.50
2024-05-09T00:36:29.637Z,8.40
2024-05-09T00:39:01.039Z,8.30
2024-05-09T00:41:32.636Z,8.20
2024-05-09T00:44:04.942Z,8.10
2024-05-09T00:46:36.653Z,8.00
2024-05-09T00:49:08.164Z,7.90
2024-05-09T00:51:43.792Z,7.90
2024-05-09T00:54:15.472Z,7.80
2024-05-09T00:56:47.172Z,7.70
2024-05-09T00:59:18.999Z,7.70
2024-05-09T01:01:51.204Z,7.70
2024-05-09T01:04:22.762Z,7.60
2024-05-09T01:06:57.337Z,7.60
2024-05-09T01:09:29.074Z,7.60
2024-05-09T01:12:00.862Z,7.60
2024-05-09T01:14:32.450Z,7.60
2024-05-09T01:17:03.946Z,7.60
2024-05-09T01:19:36.596Z,7.50
2024-05-09T01:22:11.414Z,7.50
2024-05-09T01:24:45.819Z,7.40
2024-05-09T01:27:17.429Z,7.40
2024-05-09T01:29:48.929Z,7.40
2024-05-09T01:32:20.397Z,7.30
2024-05-09T01:34:51.985Z,7.30
2024-05-09T01:37:23.430Z,7.30
2024-05-09T01:39:57.942Z,7.20
2024-05-09T01:42:29.411Z,7.20
2024-05-09T01:45:00.895Z,7.20
2024-05-09T01:47:32.470Z,7.20
2024-05-09T01:50:06.604Z,7.20
2024-05-09T01:52:40.220Z,7.10
2024-05-09T01:55:14.819Z,7.10
2024-05-09T01:57:46.163Z,7.10
2024-05-09T02:00:30.146Z,7.00
2024-05-09T02:03:10.041Z,7.00
2024-05-09T02:05:42.290Z,6.90
2024-05-09T02:08:18.922Z,6.90
2024-05-09T02:10:53.915Z,6.80
2024-05-09T02:13:25.539Z,6.80
2024-05-09T02:15:56.986Z,6.80
2024-05-09T02:18:28.546Z,6.80
2024-05-09T02:21:00.518Z,6.70
2024-05-09T02:23:32.082Z,6.70
2024-05-09T02:26:06.784Z,6.60
2024-05-09T02:28:42.896Z,6.60
2024-05-09T02:31:16.442Z,6.50
2024-05-09T02:33:48.510Z,6.40
2024-05-09T02:36:20.472Z,6.40
2024-05-09T02:38:49.100Z,6.40
2024-05-09T02:41:27.786Z,6.40
2024-05-09T02:43:56.510Z,6.30
2024-05-09T02:46:28.317Z,6.30
2024-05-09T02:48:56.934Z,6.30
2024-05-09T02:51:28.599Z,6.30
2024-05-09T02:53:57.239Z,6.20
2024-05-09T02:56:32.222Z,6.20
2024-05-09T02:59:00.897Z,6.20
2024-05-09T03:01:32.624Z,6.20
2024-05-09T03:04:01.383Z,6.20
2024-05-09T03:06:33.150Z,6.20
2024-05-09T03:09:01.680Z,6.10
2024-05-09T03:11:36.796Z,6.10
2024-05-09T03:14:05.506Z,6.00
2024-05-09T03:16:42.194Z,6.00
2024-05-09T03:19:11.238Z,6.10
2024-05-09T03:21:43.661Z,6.00
2024-05-09T03:24:12.334Z,6.00
2024-05-09T03:26:47.619Z,6.00
2024-05-09T03:29:16.186Z,6.00
2024-05-09T03:31:47.998Z,6.00
2024-05-09T03:34:16.760Z,6.00
2024-05-09T03:36:49.369Z,6.00
2024-05-09T03:39:21.227Z,6.10
2024-05-09T03:41:56.145Z,6.00
2024-05-09T03:44:27.981Z,5.90
2024-05-09T03:46:59.715Z,5.90
2024-05-09T03:49:28.325Z,5.90
2024-05-09T03:52:06.144Z,5.90
2024-05-09T03:54:36.040Z,5.90
2024-05-09T03:57:11.014Z,5.90
2024-05-09T03:59:39.595Z,6.00
2024-05-09T04:02:11.345Z,6.00
2024-05-09T04:04:42.707Z,6.00
2024-05-09T04:07:14.584Z,6.00
2024-05-09T04:09:43.180Z,6.10
2024-05-09T04:12:18.223Z,6.20
2024-05-09T04:14:46.834Z,6.30
2024-05-09T04:17:18.713Z,6.40
2024-05-09T04:19:47.306Z,6.60
2024-05-09T04:22:19.176Z,6.70
2024-05-09T04:24:48.137Z,7.00
2024-05-09T04:27:23.006Z,7.20
2024-05-09T04:29:51.588Z,7.30
2024-05-09T04:32:23.390Z,7.50
2024-05-09T04:34:51.978Z,7.70
2024-05-09T04:37:23.560Z,7.80
2024-05-09T04:39:51.984Z,8.00
2024-05-09T04:42:26.815Z,8.10
2024-05-09T04:44:58.693Z,8.10
2024-05-09T04:47:30.693Z,8.20
2024-05-09T04:49:59.500Z,8.30
2024-05-09T04:52:31.143Z,8.30
2024-05-09T04:54:59.734Z,8.50
2024-05-09T04:57:34.599Z,8.60
2024-05-09T05:00:07.201Z,8.80
2024-05-09T05:02:41.209Z,9.00
2024-05-09T05:05:11.708Z,9.20
2024-05-09T05:07:43.800Z,9.30
2024-05-09T05:10:17.916Z,9.50
2024-05-09T05:13:15.013Z,9.80
2024-05-09T05:15:47.502Z,10.30
2024-05-09T05:18:16.970Z,10.80
2024-05-09T05:20:49.100Z,11.20
2024-05-09T05:23:20.423Z,11.60
2024-05-09T05:25:53.731Z,12.00
2024-05-09T05:28:26.027Z,12.40
2024-05-09T05:30:57.813Z,12.80
2024-05-09T05:33:26.664Z,13.10
2024-05-09T05:35:58.602Z,13.40
2024-05-09T05:38:28.387Z,13.70
2024-05-09T05:41:00.763Z,13.90
2024-05-09T05:43:32.515Z,14.10
2024-05-09T05:46:04.322Z,14.30
2024-05-09T05:48:33.140Z,14.40
2024-05-09T05:51:06.237Z,14.50
2024-05-09T05:53:34.998Z,14.60
2024-05-09T05:56:06.777Z,14.60
2024-05-09T05:58:39.178Z,14.70
2024-05-09T06:01:10.902Z,14.70
2024-05-09T06:03:39.821Z,14.70
2024-05-09T06:06:11.682Z,14.70
2024-05-09T06:08:40.419Z,14.60
2024-05-09T06:11:12.251Z,14.70
2024-05-09T06:13:46.926Z,14.70
2024-05-09T06:16:18.737Z,14.50
2024-05-09T06:18:47.418Z,14.50
2024-05-09T06:21:21.117Z,14.40
2024-05-09T06:23:50.557Z,14.40
2024-05-09T06:26:22.302Z,14.30
2024-05-09T06:28:53.932Z,14.20
2024-05-09T06:31:25.608Z,14.10
2024-05-09T06:33:54.380Z,14.00
2024-05-09T06:36:26.160Z,13.90
2024-05-09T06:38:54.673Z,13.90
2024-05-09T06:41:26.497Z,13.80
2024-05-09T06:43:58.453Z,13.70
2024-05-09T06:46:30.201Z,13.70
2024-05-09T06:49:00.925Z,13.60
2024-05-09T06:51:32.645Z,13.60
2024-05-09T06:54:01.183Z,13.60
2024-05-09T06:56:32.920Z,13.50
2024-05-09T06:59:05.399Z,13.60
2024-05-09T07:01:37.132Z,13.60
2024-05-09T07:04:06.148Z,13.60
2024-05-09T07:06:37.982Z,13.60
2024-05-09T07:09:06.538Z,13.60
2024-05-09T07:11:38.359Z,13.60
2024-05-09T07:14:10.123Z,13.60
2024-05-09T07:16:41.871Z,13.60
2024-05-09T07:19:10.541Z,13.70
2024-05-09T07:21:42.090Z,13.60
2024-05-09T07:24:10.666Z,13.70
2024-05-09T07:26:42.296Z,13.70
2024-05-09T07:29:14.098Z,13.70
2024-05-09T07:31:45.835Z,13.70
2024-05-09T07:34:17.605Z,13.70
2024-05-09T07:36:46.920Z,13.80
2024-05-09T07:39:18.544Z,13.90
2024-05-09T07:41:47.138Z,13.90
2024-05-09T07:44:22.169Z,13.90
2024-05-09T07:47:52.306Z,14.00
2024-05-09T07:51:32.274Z,14.00
2024-05-09T07:53:32.648Z,14.00
2024-05-09T07:55:22.739Z,14.20
2024-05-09T07:57:51.793Z,14.30
2024-05-09T08:00:31.121Z,14.40
2024-05-09T08:03:00.769Z,14.60
2024-05-09T08:05:32.682Z,14.70
2024-05-09T08:08:01.308Z,14.90
2024-05-09T08:10:35.562Z,15.00
2024-05-09T08:13:04.828Z,15.10
2024-05-09T08:15:40.240Z,15.20
2024-05-09T08:18:10.006Z,15.40
2024-05-09T08:20:42.739Z,15.50
2024-05-09T08:23:12.198Z,15.70
2024-05-09T08:25:46.176Z,15.90
2024-05-09T08:28:15.960Z,16.10
2024-05-09T08:30:51.340Z,16.10
2024-05-09T08:33:20.189Z,16.30
2024-05-09T08:35:51.785Z,16.50
2024-05-09T08:38:20.325Z,16.70
2024-05-09T08:40:52.628Z,16.90
2024-05-09T08:43:21.644Z,17.00
2024-05-09T08:45:57.157Z,17.10
2024-05-09T08:48:27.149Z,17.30
2024-05-09T08:51:00.014Z,17.30
2024-05-09T08:53:28.685Z,17.30
2024-05-09T08:56:05.033Z,17.40
2024-05-09T08:58:35.103Z,17.40
2024-05-09T09:01:11.847Z,17.40
2024-05-09T09:03:41.988Z,17.30
2024-05-09T09:06:16.054Z,17.40
2024-05-09T09:08:46.570Z,17.40
2024-05-09T09:11:18.390Z,17.40
2024-05-09T09:13:47.002Z,17.50
2024-05-09T09:16:21.991Z,17.80
2024-05-09T09:18:51.910Z,17.90
2024-05-09T09:21:23.805Z,17.90
2024-05-09T09:23:52.407Z,17.80
2024-05-09T09:26:24.139Z,17.70
2024-05-09T09:28:53.273Z,17.70
2024-05-09T09:31:28.402Z,17.90
2024-05-09T09:33:57.296Z,18.10
2024-05-09T09:36:33.491Z,18.40
2024-05-09T09:39:02.288Z,18.50
2024-05-09T09:41:35.943Z,18.50
2024-05-09T09:44:07.713Z,18.40
2024-05-09T09:46:43.610Z,18.40
2024-05-09T09:49:13.379Z,18.40
2024-05-09T09:51:47.196Z,18.50
2024-05-09T09:54:16.053Z,18.50
2024-05-09T09:56:49.298Z,18.60
2024-05-09T09:59:18.218Z,18.70
2024-05-09T10:01:53.396Z,18.90
2024-05-09T10:04:22.142Z,18.90
2024-05-09T10:06:56.240Z,19.00
2024-05-09T10:09:24.878Z,19.10
2024-05-09T10:12:00.218Z,19.20
2024-05-09T10:14:31.482Z,19.30
2024-05-09T10:17:11.593Z,19.30
2024-05-09T10:19:40.198Z,19.20
2024-05-09T10:22:12.401Z,18.90
2024-05-09T10:24:50.622Z,18.80
2024-05-09T10:27:30.876Z,18.90
2024-05-09T10:30:00.756Z,19.10
2024-05-09T10:32:42.967Z,19.30
2024-05-09T10:35:12.498Z,19.50
2024-05-09T10:37:46.016Z,19.80
2024-05-09T10:40:25.745Z,20.10
2024-05-09T10:43:04.628Z,20.30
2024-05-09T10:45:36.573Z,20.20
2024-05-09T10:48:12.931Z,20.20
2024-05-09T10:50:44.321Z,20.30
2024-05-09T10:53:16.108Z,20.20
2024-05-09T10:55:44.643Z,20.20
2024-05-09T10:58:21.637Z,20.00
2024-05-09T11:00:51.155Z,19.90
2024-05-09T11:03:27.327Z,19.90
2024-05-09T11:05:56.790Z,20.00
2024-05-09T11:08:29.299Z,20.10
2024-05-09T11:11:00.073Z,20.10
2024-05-09T11:13:32.731Z,20.10
2024-05-09T11:16:01.938Z,19.90
2024-05-09T11:18:39.228Z,19.80
2024-05-09T11:21:14.025Z,19.60
2024-05-09T11:23:46.110Z,19.60
2024-05-09T11:26:17.709Z,19.50
2024-05-09T11:28:51.169Z,19.60
2024-05-09T11:31:19.754Z,19.60
2024-05-09T11:33:57.686Z,19.60
2024-05-09T11:36:26.250Z,19.80
2024-05-09T11:38:57.930Z,20.00
2024-05-09T11:41:27.771Z,20.30
2024-05-09T11:43:59.537Z,20.60
2024-05-09T11:46:28.620Z,20.90
2024-05-09T11:49:03.713Z,20.80
2024-05-09T11:51:32.431Z,20.60
2024-05-09T11:54:04.170Z,20.40
2024-05-09T11:56:32.906Z,20.10
2024-05-09T11:59:04.715Z,19.90
2024-05-09T12:01:33.352Z,19.90
2024-05-09T12:04:08.722Z,20.10
2024-05-09T12:06:37.466Z,20.30
2024-05-09T12:09:09.162Z,20.50
2024-05-09T12:11:37.722Z,20.80
2024-05-09T12:14:09.471Z,21.10
2024-05-09T12:16:38.726Z,21.30
2024-05-09T12:19:13.806Z,21.30
2024-05-09T12:21:42.568Z,21.30
2024-05-09T12:24:17.746Z,21.10
2024-05-09T12:26:47.073Z,20.80
2024-05-09T12:29:18.796Z,20.60
2024-05-09T12:31:47.344Z,20.50
2024-05-09T12:34:22.271Z,20.40
2024-05-09T12:36:50.905Z,20.60
2024-05-09T12:39:22.695Z,20.70
2024-05-09T12:41:51.158Z,21.00
2024-05-09T12:44:22.833Z,21.20
2024-05-09T12:46:51.544Z,21.50
2024-05-09T12:49:26.698Z,21.70
2024-05-09T12:51:55.562Z,21.90
2024-05-09T12:54:27.383Z,21.70
2024-05-09T12:56:55.978Z,21.40
2024-05-09T12:59:27.689Z,21.20
2024-05-09T13:01:57.373Z,21.00
2024-05-09T13:04:33.920Z,20.80
2024-05-09T13:07:04.315Z,20.60
2024-05-09T13:09:37.587Z,20.70
2024-05-09T13:12:06.990Z,20.70
2024-05-09T13:14:38.812Z,21.00
2024-05-09T13:17:09.254Z,21.20
2024-05-09T13:19:44.295Z,21.30
2024-05-09T13:22:12.989Z,21.40
2024-05-09T13:24:44.937Z,21.50
2024-05-09T13:27:13.511Z,21.60
2024-05-09T13:29:45.042Z,21.70
2024-05-09T13:32:13.581Z,21.50
2024-05-09T13:34:48.451Z,21.20
2024-05-09T13:37:17.072Z,21.00
2024-05-09T13:39:48.659Z,21.00
2024-05-09T13:42:17.594Z,21.20
2024-05-09T13:44:49.245Z,21.50
2024-05-09T13:47:18.192Z,21.80
2024-05-09T13:49:53.268Z,22.20
2024-05-09T13:52:21.912Z,22.40
2024-05-09T13:54:53.547Z,22.50
2024-05-09T13:57:22.188Z,22.60
2024-05-09T13:59:53.928Z,22.70
2024-05-09T14:02:22.533Z,22.80
2024-05-09T14:04:57.746Z,22.80
2024-05-09T14:07:26.507Z,22.90
2024-05-09T14:09:58.374Z,22.90
2024-05-09T14:12:26.990Z,22.60
2024-05-09T14:14:58.708Z,22.20
2024-05-09T14:17:27.326Z,22.00
2024-05-09T14:20:02.394Z,22.00
2024-05-09T14:22:31.727Z,22.00
2024-05-09T14:25:03.418Z,22.00
2024-05-09T14:27:32.871Z,21.80
2024-05-09T14:30:07.333Z,21.70
2024-05-09T14:32:38.174Z,21.60
2024-05-09T14:35:13.154Z,21.60
2024-05-09T14:37:42.557Z,21.60
2024-05-09T14:40:30.490Z,21.60
2024-05-09T14:43:04.650Z,21.50
2024-05-09T14:45:36.702Z,21.50
2024-05-09T14:48:09.855Z,21.60
2024-05-09T14:50:42.324Z,21.60
2024-05-09T14:53:15.328Z,21.70
2024-05-09T14:55:44.276Z,21.80
2024-05-09T14:58:16.573Z,21.80
2024-05-09T15:00:50.394Z,21.70
2024-05-09T15:03:23.662Z,21.70
2024-05-09T15:05:55.613Z,21.50
2024-05-09T15:08:27.447Z,21.40
2024-05-09T15:10:56.109Z,21.40
2024-05-09T15:13:29.460Z,21.40
2024-05-09T15:15:58.147Z,21.40
2024-05-09T15:18:30.175Z,21.50
2024-05-09T15:21:02.205Z,21.60
2024-05-09T15:23:34.062Z,21.50
2024-05-09T15:26:02.672Z,21.30
2024-05-09T15:28:34.861Z,21.10
2024-05-09T15:31:03.457Z,21.10
2024-05-09T15:33:35.310Z,21.00
2024-05-09T15:36:08.001Z,21.00
2024-05-09T15:38:39.929Z,21.00
2024-05-09T15:41:08.631Z,21.10
2024-05-09T15:43:40.428Z,21.20
2024-05-09T15:46:09.084Z,21.20
2024-05-09T15:48:44.816Z,21.20
2024-05-09T15:51:16.790Z,21.10
2024-05-09T15:53:48.792Z,21.10
2024-05-09T15:56:17.746Z,21.00
2024-05-09T15:58:49.581Z,21.00
2024-05-09T16:01:18.376Z,21.00
2024-05-09T16:03:50.493Z,21.10
2024-05-09T16:06:23.153Z,21.10
2024-05-09T16:08:54.888Z,21.00
2024-05-09T16:11:24.050Z,21.00
2024-05-09T16:13:55.611Z,21.10
2024-05-09T16:16:24.358Z,21.10
2024-05-09T16:18:56.276Z,21.10
2024-05-09T16:21:28.079Z,21.00
2024-05-09T16:23:59.806Z,20.80
2024-05-09T16:26:28.441Z,20.80
2024-05-09T16:29:00.248Z,20.70
2024-05-09T16:31:28.997Z,20.80
2024-05-09T16:34:00.785Z,20.90
2024-05-09T16:36:32.729Z,21.00
2024-05-09T16:39:04.440Z,21.00
2024-05-09T16:41:36.763Z,21.00
2024-05-09T16:44:05.402Z,21.00
2024-05-09T16:46:37.205Z,21.10
2024-05-09T16:49:06.261Z,21.30
2024-05-09T16:51:40.985Z,21.40
2024-05-09T16:54:09.468Z,21.70
2024-05-09T16:56:41.162Z,22.30
2024-05-09T16:59:09.730Z,23.30
2024-05-09T17:01:41.443Z,24.70
2024-05-09T17:04:10.084Z,26.00
2024-05-09T17:06:45.035Z,27.30
2024-05-09T17:09:15.687Z,28.10
2024-05-09T17:11:50.409Z,28.50
2024-05-09T17:14:22.031Z,28.60
2024-05-09T17:16:53.800Z,28.60
2024-05-09T17:19:25.636Z,28.30
2024-05-09T17:21:57.478Z,28.20
2024-05-09T17:24:29.273Z,28.00
2024-05-09T17:26:57.795Z,27.80
2024-05-09T17:29:29.548Z,27.70
2024-05-09T17:31:58.069Z,27.70
2024-05-09T17:34:29.814Z,27.80
2024-05-09T17:37:01.768Z,28.00
2024-05-09T17:39:33.423Z,28.50
2024-05-09T17:42:01.894Z,29.20
2024-05-09T17:44:33.454Z,29.50
2024-05-09T17:47:02.147Z,29.50
2024-05-09T17:49:33.903Z,28.90
2024-05-09T17:52:06.145Z,28.00
2024-05-09T17:54:37.922Z,27.50
2024-05-09T17:57:06.915Z,27.20
2024-05-09T17:59:38.668Z,26.60
2024-05-09T18:02:07.667Z,26.20
2024-05-09T18:04:39.544Z,26.10
2024-05-09T18:07:11.675Z,26.30
2024-05-09T18:09:43.616Z,26.30
2024-05-09T18:12:15.530Z,26.30
2024-05-09T18:14:44.081Z,26.30
2024-05-09T18:17:15.499Z,26.00
2024-05-09T18:19:43.993Z,25.60
2024-05-09T18:22:18.781Z,24.80
2024-05-09T18:24:47.344Z,23.80
2024-05-09T18:27:18.836Z,22.80
2024-05-09T18:29:47.316Z,21.90
2024-05-09T18:32:18.778Z,21.10
2024-05-09T18:34:47.256Z,20.50
2024-05-09T18:37:22.025Z,20.00
2024-05-09T18:39:50.487Z,19.50
2024-05-09T18:42:21.990Z,19.20
2024-05-09T18:44:50.416Z,18.90
2024-05-09T18:47:22.130Z,18.70
2024-05-09T18:49:51.571Z,18.40
2024-05-09T18:52:26.304Z,18.20
2024-05-09T18:54:54.864Z,18.00
2024-05-09T18:57:26.503Z,17.80
2024-05-09T18:59:54.923Z,17.70
2024-05-09T19:02:26.488Z,17.50
2024-05-09T19:04:55.105Z,17.40
2024-05-09T19:07:29.897Z,17.40
2024-05-09T19:09:59.372Z,17.30
2024-05-09T19:12:30.851Z,17.30
2024-05-09T19:14:59.321Z,17.20
2024-05-09T19:17:32.186Z,17.10
2024-05-09T19:20:00.869Z,17.10
2024-05-09T19:22:35.703Z,17.00
2024-05-09T19:25:04.304Z,16.90
2024-05-09T19:27:35.890Z,16.90
2024-05-09T19:30:09.587Z,16.80
2024-05-09T19:32:46.029Z,16.60
2024-05-09T19:35:14.545Z,16.50
2024-05-09T19:37:51.855Z,16.30
2024-05-09T19:40:28.607Z,16.20
2024-05-09T19:43:03.944Z,16.10
2024-05-09T19:45:33.742Z,15.90
2024-05-09T19:48:06.820Z,15.80
2024-05-09T19:50:41.968Z,15.70
2024-05-09T19:53:18.888Z,15.60
2024-05-09T19:55:47.383Z,15.50
2024-05-09T19:58:18.999Z,15.40
2024-05-09T20:00:48.124Z,15.20
2024-05-09T20:03:20.011Z,15.10
2024-05-09T20:05:48.797Z,15.00
2024-05-09T20:08:23.637Z,14.90
2024-05-09T20:10:52.288Z,14.70
2024-05-09T20:13:24.204Z,14.60
2024-05-09T20:15:53.047Z,14.50
2024-05-09T20:18:24.655Z,14.40
2024-05-09T20:20:54.111Z,14.30
2024-05-09T20:23:29.662Z,14.20
2024-05-09T20:25:58.032Z,14.10
2024-05-09T20:28:29.607Z,14.00
2024-05-09T20:30:58.208Z,13.90
2024-05-09T20:33:30.376Z,13.80
2024-05-09T20:36:01.797Z,13.70
2024-05-09T20:38:36.833Z,13.60
2024-05-09T20:41:05.525Z,13.50
2024-05-09T20:43:37.147Z,13.40
2024-05-09T20:46:05.925Z,13.30
2024-05-09T20:48:38.061Z,13.30
2024-05-09T20:51:06.921Z,13.40
2024-05-09T20:53:41.835Z,13.50
2024-05-09T20:56:10.466Z,13.40
2024-05-09T20:58:42.170Z,13.40
2024-05-09T21:01:10.641Z,13.30
2024-05-09T21:03:44.814Z,13.40
2024-05-09T21:06:13.363Z,13.40
2024-05-09T21:08:48.293Z,13.40
2024-05-09T21:11:16.839Z,13.50
2024-05-09T21:13:49.349Z,13.50
2024-05-09T21:16:18.237Z,13.40
2024-05-09T21:18:50.070Z,13.40
2024-05-09T21:21:18.615Z,13.40
2024-05-09T21:23:53.447Z,13.40
2024-05-09T21:26:24.404Z,13.40
2024-05-09T21:28:56.143Z,13.30
2024-05-09T21:31:24.738Z,13.30
2024-05-09T21:33:56.570Z,13.40
2024-05-09T21:36:25.132Z,13.50
2024-05-09T21:39:00.019Z,13.40
2024-05-09T21:41:28.583Z,13.30
2024-05-09T21:44:00.262Z,13.30
2024-05-09T21:46:28.973Z,13.30
2024-05-09T21:49:00.869Z,13.20
2024-05-09T21:51:29.597Z,13.10
2024-05-09T21:54:04.561Z,13.10
2024-05-09T21:56:33.175Z,13.00
2024-05-09T21:59:05.008Z,12.90
2024-05-09T22:01:34.640Z,12.90
2024-05-09T22:04:06.487Z,12.80
2024-05-09T22:06:35.519Z,12.70
2024-05-09T22:09:10.400Z,12.60
2024-05-09T22:11:39.047Z,12.60
2024-05-09T22:14:10.961Z,12.60
2024-05-09T22:16:41.503Z,12.50
2024-05-09T22:19:13.241Z,12.50
2024-05-09T22:21:41.897Z,12.50
2024-05-09T22:24:16.838Z,12.50
2024-05-09T22:26:45.354Z,12.50
2024-05-09T22:29:17.094Z,12.50
2024-05-09T22:31:45.622Z,12.50
2024-05-09T22:34:17.500Z,12.50
2024-05-09T22:36:46.257Z,12.40
2024-05-09T22:39:21.353Z,12.40
2024-05-09T22:41:49.942Z,12.40
2024-05-09T22:44:21.753Z,12.40
2024-05-09T22:46:50.464Z,12.50
2024-05-09T22:49:22.361Z,12.60
2024-05-09T22:51:50.977Z,12.60
2024-05-09T22:54:25.998Z,12.70
2024-05-09T22:56:54.500Z,12.80
2024-05-09T22:59:26.302Z,12.80
2024-05-09T23:01:54.918Z,12.80
2024-05-09T23:04:26.828Z,12.70
2024-05-09T23:06:55.567Z,12.60
2024-05-09T23:09:30.551Z,12.50
2024-05-09T23:11:59.235Z,12.40
2024-05-09T23:14:31.028Z,12.30
2024-05-09T23:16:59.647Z,12.20
2024-05-09T23:19:31.617Z,12.10
2024-05-09T23:22:00.501Z,12.00
2024-05-09T23:24:36.510Z,11.90
2024-05-09T23:27:05.559Z,11.80
2024-05-09T23:29:37.518Z,11.70
2024-05-09T23:32:06.618Z,11.60
2024-05-09T23:34:38.489Z,11.40
2024-05-09T23:37:07.053Z,11.40
2024-05-09T23:39:42.027Z,11.20
2024-05-09T23:42:10.637Z,11.10
2024-05-09T23:44:42.534Z,11.10
2024-05-09T23:47:11.190Z,11.00
2024-05-09T23:49:43.029Z,10.90
2024-05-09T23:52:11.607Z,11.00
2024-05-09T23:54:46.984Z,11.00
2024-05-09T23:57:15.601Z,11.00
2024-05-09T23:59:47.438Z,11.00
